createdAt,value
2023-02-22T00:03:52.276Z,7.20
2023-02-22T00:13:58.934Z,7.50
2023-02-22T00:24:17.503Z,6.70
2023-02-22T00:34:21.444Z,8.20
2023-02-22T00:44:25.153Z,7.80
2023-02-22T00:54:28.816Z,7.20
2023-02-22T01:04:32.495Z,8.00
2023-02-22T01:14:36.440Z,8.40
2023-02-22T01:24:40.197Z,9.20
2023-02-22T01:34:43.858Z,8.10
2023-02-22T01:45:26.868Z,8.90
2023-02-22T01:55:32.579Z,9.90
2023-02-22T02:05:38.158Z,8.50
2023-02-22T02:15:41.921Z,10.90
2023-02-22T02:26:15.661Z,10.00
2023-02-22T02:37:00.653Z,11.50
2023-02-22T02:47:08.450Z,11.80
2023-02-22T02:57:12.267Z,10.80
2023-02-22T03:07:21.052Z,11.40
2023-02-22T03:17:37.777Z,9.70
2023-02-22T03:27:46.734Z,9.30
2023-02-22T03:37:55.754Z,9.20
2023-02-22T03:48:37.840Z,9.20
2023-02-22T03:58:45.720Z,8.90
2023-02-22T04:08:49.476Z,8.90
2023-02-22T04:18:54.487Z,8.10
2023-02-22T04:28:58.301Z,9.10
2023-02-22T04:39:05.739Z,10.10
2023-02-22T04:49:10.016Z,9.60
2023-02-22T04:59:15.858Z,10.30
2023-02-22T05:09:22.073Z,9.90
2023-02-22T05:19:25.771Z,10.70
2023-02-22T05:29:29.405Z,11.00
2023-02-22T05:39:33.216Z,10.50
2023-02-22T05:49:37.057Z,11.30
2023-02-22T05:59:40.930Z,12.90
2023-02-22T06:09:44.805Z,13.90
2023-02-22T06:19:48.454Z,13.10
2023-02-22T06:29:52.119Z,13.50
2023-02-22T06:39:55.903Z,14.20
2023-02-22T06:50:01.415Z,14.30
2023-02-22T07:00:05.770Z,13.50
2023-02-22T07:10:20.386Z,13.60
2023-02-22T07:20:25.570Z,14.30
2023-02-22T07:30:32.655Z,13.80
2023-02-22T07:40:37.991Z,14.60
2023-02-22T07:50:42.163Z,17.70
2023-02-22T08:00:48.631Z,13.70
2023-02-22T08:10:53.123Z,14.80
2023-02-22T08:20:57.773Z,23.50
2023-02-22T08:31:01.627Z,23.20
2023-02-22T08:41:05.611Z,18.90
2023-02-22T08:51:10.237Z,15.20
2023-02-22T09:01:19.321Z,8.10
2023-02-22T09:11:25.716Z,6.90
2023-02-22T09:21:30.236Z,6.60
2023-02-22T09:31:36.920Z,5.70
2023-02-22T09:42:06.337Z,4.40
2023-02-22T09:52:22.197Z,4.90
2023-02-22T10:02:33.072Z,4.30
2023-02-22T10:12:54.445Z,5.00
2023-02-22T10:23:16.083Z,4.60
2023-02-22T10:33:22.356Z,5.00
2023-02-22T10:43:26.222Z,5.60
2023-02-22T10:53:31.240Z,4.50
2023-02-22T11:03:35.118Z,5.20
2023-02-22T11:13:40.821Z,5.00
2023-02-22T11:23:45.107Z,4.90
2023-02-22T11:33:52.900Z,4.70
2023-02-22T11:54:40.840Z,5.80
2023-02-22T12:05:08.576Z,6.20
2023-02-22T12:15:31.816Z,6.20
2023-02-22T12:25:41.127Z,5.20
2023-02-22T12:35:57.002Z,4.60
2023-02-22T12:46:12.511Z,5.80
2023-02-22T12:56:52.022Z,5.90
2023-02-22T13:33:45.324Z,6.80
2023-02-22T13:44:04.829Z,6.10
2023-02-22T13:54:18.104Z,6.20
2023-02-22T14:04:21.406Z,5.70
2023-02-22T14:14:25.991Z,6.10
2023-02-22T14:24:42.867Z,6.20
2023-02-22T14:34:58.329Z,11.20
2023-02-22T14:45:14.564Z,13.80
2023-02-22T14:55:22.839Z,13.80
2023-02-22T15:05:30.493Z,10.30
2023-02-22T15:25:39.347Z,19.60
2023-02-22T15:35:42.592Z,11.50
2023-02-22T15:45:46.484Z,9.50
2023-02-22T15:55:57.989Z,8.70
2023-02-22T16:06:01.637Z,7.20
2023-02-22T16:16:27.659Z,7.80
2023-02-22T16:26:33.454Z,9.50
2023-02-22T16:36:45.954Z,10.10
2023-02-22T16:46:49.185Z,21.80
2023-02-22T16:56:52.893Z,16.50
2023-02-22T17:06:59.245Z,18.90
2023-02-22T17:17:03.546Z,18.60
2023-02-22T17:27:06.852Z,24.50
2023-02-22T17:37:10.016Z,26.00
2023-02-22T17:47:13.361Z,24.30
2023-02-22T17:57:16.576Z,29.60
2023-02-22T18:07:20.018Z,25.90
2023-02-22T18:17:23.262Z,28.70
2023-02-22T18:27:29.158Z,27.20
2023-02-22T18:37:32.994Z,27.50
2023-02-22T18:47:42.324Z,28.30
2023-02-22T19:10:09.117Z,34.20
2023-02-22T19:20:12.512Z,31.20
2023-02-22T19:30:17.363Z,30.80
2023-02-22T19:40:24.590Z,34.00
2023-02-22T19:50:27.898Z,44.20
2023-02-22T20:00:35.753Z,30.10
2023-02-22T20:10:39.579Z,27.50
2023-02-22T20:20:43.222Z,26.60
2023-02-22T20:30:48.823Z,27.30
2023-02-22T20:40:52.114Z,29.20
2023-02-22T20:50:56.980Z,26.70
2023-02-22T21:01:05.710Z,26.20
2023-02-22T21:11:18.069Z,23.90
2023-02-22T21:21:22.579Z,27.40
2023-02-22T21:31:26.823Z,27.60
2023-02-22T21:41:32.487Z,22.60
2023-02-22T21:51:37.824Z,29.40
2023-02-22T22:02:04.079Z,25.80
2023-02-22T22:12:10.375Z,33.50
2023-02-22T22:22:13.689Z,31.60
2023-02-22T22:32:20.800Z,33.00
2023-02-22T22:42:28.234Z,29.20
2023-02-22T22:52:35.414Z,28.60
2023-02-22T23:02:39.536Z,19.30
2023-02-22T23:12:43.109Z,30.60
2023-02-22T23:22:47.696Z,26.80
2023-02-22T23:32:51.208Z,27.60
2023-02-22T23:42:54.904Z,27.70
2023-02-22T23:53:06.074Z,26.90
